Wan Hai 515 — 9V7581 — position and weather

sailwx.info

Track history (hours):
 
Tides and Currents Weather Stations Pressure Air Temp Water Temp Dewpoint Dewpoint Depression Visibility Wind Speed Wind Dir Waves Ship Positions

Wan Hai 515

Last reported at 2017-Sep-19 08:49 UTC. Time now 2017-Sep-19 15:18 UTC.
Position N 30°26' E 122°35'.

Length 259 m; draft 10.7 m.

Type: Cargo ship. MMSI: 566828000.

Date/timePositionNaut miles runAvg speedWind from/ knotsBaromVisibWave heightAir tempDewpointWater temp
2017-Sep-19 08:49N 30°26' E 122°35'0 0.1
2017-Sep-19 08:26N 30°26' E 122°35'0 0.0
2017-Sep-19 07:59N 30°26' E 122°35'0 0.1
2017-Sep-19 07:26N 30°26' E 122°35'0 0.1
2017-Sep-19 06:56N 30°26' E 122°35'1 0.1
2017-Sep-19 01:29N 30°27' E 122°35'2 0.3
2017-Sep-18 19:41N 30°27' E 122°38'0 0.0
2017-Sep-18 19:23N 30°27' E 122°38'0 0.0
2017-Sep-18 18:53N 30°27' E 122°38'0 0.0
2017-Sep-18 18:23N 30°27' E 122°38'0 0.1
2017-Sep-18 17:38N 30°27' E 122°38'0 0.1
2017-Sep-18 15:08N 30°27' E 122°38'0 0.1
2017-Sep-18 11:56N 30°27' E 122°37'0 0.1
2017-Sep-18 08:47N 30°27' E 122°38'0 0.0
2017-Sep-17 20:38N 30°27' E 122°38'0 0.1
2017-Sep-17 20:29N 30°27' E 122°38'4 8.1
2017-Sep-17 19:59N 30°28' E 122°42'611.5
2017-Sep-17 19:30N 30°26' E 122°48'2110.5
2017-Sep-17 17:30N 30°07' E 122°57'713.7
2017-Sep-17 17:00N 30°01' E 122°52'1213.6
2017-Sep-17 16:06N 29°51' E 122°44'114.3
2017-Sep-17 16:00N 29°50' E 122°43'612.6
2017-Sep-17 15:30N 29°47' E 122°37'611.4
2017-Sep-17 15:00N 29°42' E 122°37'612.0
2017-Sep-17 14:30N 29°40' E 122°31'714.8
2017-Sep-17 14:00N 29°43' E 122°23'612.2
2017-Sep-17 13:30N 29°46' E 122°17'5 9.6
2017-Sep-17 13:00N 29°50' E 122°13'5 9.5
2017-Sep-17 12:30N 29°49' E 122°08'612.6
2017-Sep-17 12:00N 29°46' E 122°01'1 1.9
2017-Sep-17 11:30N 29°46' E 122°00'0 0.1
2017-Sep-17 11:00N 29°46' E 121°60'0 0.1
2017-Sep-17 10:21N 29°46' E 122°00'0 0.0
2017-Sep-17 09:57N 29°46' E 122°00'0 0.0
2017-Sep-17 09:30N 29°46' E 122°00'0 0.0
2017-Sep-17 08:57N 29°46' E 122°00'0 0.0
2017-Sep-17 08:30N 29°46' E 122°00'0 0.1
2017-Sep-17 07:54N 29°46' E 121°60'0 0.1
2017-Sep-17 07:21N 29°46' E 122°00'0 0.0
2017-Sep-17 06:57N 29°46' E 122°00'0 0.0
2017-Sep-17 06:09N 29°46' E 122°00'0 0.0
2017-Sep-17 06:00N 29°46' E 122°00'0 0.0
2017-Sep-17 05:30N 29°46' E 122°00'0 0.0
2017-Sep-17 05:00N 29°46' E 122°00'0 0.1
2017-Sep-17 04:18N 29°46' E 121°60'0 0.1
2017-Sep-17 03:45N 29°46' E 122°00'0 0.0
2017-Sep-17 03:27N 29°46' E 122°00'0 0.1
2017-Sep-17 02:51N 29°46' E 121°60'0 0.1
2017-Sep-17 02:18N 29°46' E 122°00'0 0.0
2017-Sep-17 02:00N 29°46' E 122°00'0 0.0
2017-Sep-17 01:15N 29°46' E 122°00'0 0.0
2017-Sep-17 00:57N 29°46' E 122°00'0 0.0
2017-Sep-17 00:18N 29°46' E 122°00'0 0.0
2017-Sep-16 23:54N 29°46' E 122°00'0 0.0
2017-Sep-16 23:12N 29°46' E 122°00'0 0.0
2017-Sep-16 22:51N 29°46' E 122°00'0 0.1
2017-Sep-16 22:30N 29°46' E 121°60'0 0.0
2017-Sep-16 21:57N 29°46' E 121°60'0 0.1
2017-Sep-16 21:27N 29°46' E 122°00'0 0.0
2017-Sep-16 20:57N 29°46' E 122°00'0 0.0
2017-Sep-16 20:27N 29°46' E 122°00'0 0.0
2017-Sep-16 20:00N 29°46' E 122°00'1 1.8
2017-Sep-16 19:30N 29°46' E 122°01'4 7.7
2017-Sep-16 19:01N 29°48' E 122°05'510.9
2017-Sep-16 18:30N 29°50' E 122°11'510.1
2017-Sep-16 18:00N 29°48' E 122°15'5 9.6
2017-Sep-16 17:30N 29°45' E 122°20'4 7.0
2017-Sep-16 16:56N 29°45' E 122°24'0 0.0
2017-Sep-16 16:29N 29°45' E 122°24'0 0.0
2017-Sep-16 15:59N 29°45' E 122°24'0 0.0
2017-Sep-16 15:29N 29°45' E 122°24'0 0.0
2017-Sep-16 14:57N 29°45' E 122°24'0 0.0
2017-Sep-16 14:29N 29°45' E 122°24'0 0.1
2017-Sep-16 13:44N 29°45' E 122°24'0 0.0
2017-Sep-16 13:29N 29°45' E 122°24'0 0.1
2017-Sep-16 12:59N 29°45' E 122°24'0 0.1
2017-Sep-16 12:26N 29°45' E 122°24'0 0.0
2017-Sep-16 12:00N 29°45' E 122°24'0 0.0
2017-Sep-16 11:30N 29°45' E 122°24'0 0.2
2017-Sep-16 11:00N 29°45' E 122°24'1 1.6
2017-Sep-16 10:30N 29°44' E 122°24'3 5.7
2017-Sep-16 10:00N 29°43' E 122°27'612.0
2017-Sep-16 09:30N 29°43' E 122°34'714.1
2017-Sep-16 09:00N 29°46' E 122°41'177 6.0
2017-Sep-15 03:29N 32°42' E 122°50'91 3.4
2017-Sep-14 00:50N 31°15' E 123°20'616.5
2017-Sep-14 00:29N 31°09' E 123°21'916.7
2017-Sep-13 23:58N 31°01' E 123°24'2316.7
2017-Sep-13 22:34N 30°38' E 123°21'217.8
2017-Sep-13 22:27N 30°36' E 123°20'2917.8
2017-Sep-13 20:51N 30°10' E 123°06'6517.9
2017-Sep-13 17:14N 29°09' E 122°39'32716.3
2017-Sep-12 21:12N 24°36' E 119°17'4 9.9
2017-Sep-12 20:47N 24°34' E 119°13'413.8
2017-Sep-12 20:30N 24°31' E 119°10'5013.2
2017-Sep-12 16:42N 24°00' E 118°26'314.2
2017-Sep-12 16:28N 23°58' E 118°24'256 9.1
2017-Sep-11 12:20N 22°19' E 114°07'11 0.5
2017-Sep-10 15:15N 22°22' E 113°55'5 0.3
2017-Sep-10 00:15N 22°26' E 113°53'2 7.4
2017-Sep-09 23:57N 22°24' E 113°54'  
Track history (hours):
 
Tides and Currents Weather Stations Pressure Air Temp Water Temp Dewpoint Dewpoint Depression Visibility Wind Speed Wind Dir Waves Ship Positions

Wan Hai 515

Last reported at 2017-Sep-19 08:49 UTC. Time now 2017-Sep-19 15:18 UTC.
Position N 30°26' E 122°35'.

Length 259 m; draft 10.7 m.

Type: Cargo ship. MMSI: 566828000.

Date/timePositionNaut miles runAvg speedWind from/ knotsBaromVisibWave heightAir tempDewpointWater temp
2017-Sep-19 08:49N 30°26' E 122°35'0 0.1
2017-Sep-19 08:26N 30°26' E 122°35'0 0.0
2017-Sep-19 07:59N 30°26' E 122°35'0 0.1
2017-Sep-19 07:26N 30°26' E 122°35'0 0.1
2017-Sep-19 06:56N 30°26' E 122°35'1 0.1
2017-Sep-19 01:29N 30°27' E 122°35'2 0.3
2017-Sep-18 19:41N 30°27' E 122°38'0 0.0
2017-Sep-18 19:23N 30°27' E 122°38'0 0.0
2017-Sep-18 18:53N 30°27' E 122°38'0 0.0
2017-Sep-18 18:23N 30°27' E 122°38'0 0.1
2017-Sep-18 17:38N 30°27' E 122°38'0 0.1
2017-Sep-18 15:08N 30°27' E 122°38'0 0.1
2017-Sep-18 11:56N 30°27' E 122°37'0 0.1
2017-Sep-18 08:47N 30°27' E 122°38'0 0.0
2017-Sep-17 20:38N 30°27' E 122°38'0 0.1
2017-Sep-17 20:29N 30°27' E 122°38'4 8.1
2017-Sep-17 19:59N 30°28' E 122°42'611.5
2017-Sep-17 19:30N 30°26' E 122°48'2110.5
2017-Sep-17 17:30N 30°07' E 122°57'713.7
2017-Sep-17 17:00N 30°01' E 122°52'1213.6
2017-Sep-17 16:06N 29°51' E 122°44'114.3
2017-Sep-17 16:00N 29°50' E 122°43'612.6
2017-Sep-17 15:30N 29°47' E 122°37'611.4
2017-Sep-17 15:00N 29°42' E 122°37'612.0
2017-Sep-17 14:30N 29°40' E 122°31'714.8
2017-Sep-17 14:00N 29°43' E 122°23'612.2
2017-Sep-17 13:30N 29°46' E 122°17'5 9.6
2017-Sep-17 13:00N 29°50' E 122°13'5 9.5
2017-Sep-17 12:30N 29°49' E 122°08'612.6
2017-Sep-17 12:00N 29°46' E 122°01'1 1.9
2017-Sep-17 11:30N 29°46' E 122°00'0 0.1
2017-Sep-17 11:00N 29°46' E 121°60'0 0.1
2017-Sep-17 10:21N 29°46' E 122°00'0 0.0
2017-Sep-17 09:57N 29°46' E 122°00'0 0.0
2017-Sep-17 09:30N 29°46' E 122°00'0 0.0
2017-Sep-17 08:57N 29°46' E 122°00'0 0.0
2017-Sep-17 08:30N 29°46' E 122°00'0 0.1
2017-Sep-17 07:54N 29°46' E 121°60'0 0.1
2017-Sep-17 07:21N 29°46' E 122°00'0 0.0
2017-Sep-17 06:57N 29°46' E 122°00'0 0.0
2017-Sep-17 06:09N 29°46' E 122°00'0 0.0
2017-Sep-17 06:00N 29°46' E 122°00'0 0.0
2017-Sep-17 05:30N 29°46' E 122°00'0 0.0
2017-Sep-17 05:00N 29°46' E 122°00'0 0.1
2017-Sep-17 04:18N 29°46' E 121°60'0 0.1
2017-Sep-17 03:45N 29°46' E 122°00'0 0.0
2017-Sep-17 03:27N 29°46' E 122°00'0 0.1
2017-Sep-17 02:51N 29°46' E 121°60'0 0.1
2017-Sep-17 02:18N 29°46' E 122°00'0 0.0
2017-Sep-17 02:00N 29°46' E 122°00'0 0.0
2017-Sep-17 01:15N 29°46' E 122°00'0 0.0
2017-Sep-17 00:57N 29°46' E 122°00'0 0.0
2017-Sep-17 00:18N 29°46' E 122°00'0 0.0
2017-Sep-16 23:54N 29°46' E 122°00'0 0.0
2017-Sep-16 23:12N 29°46' E 122°00'0 0.0
2017-Sep-16 22:51N 29°46' E 122°00'0 0.1
2017-Sep-16 22:30N 29°46' E 121°60'0 0.0
2017-Sep-16 21:57N 29°46' E 121°60'0 0.1
2017-Sep-16 21:27N 29°46' E 122°00'0 0.0
2017-Sep-16 20:57N 29°46' E 122°00'0 0.0
2017-Sep-16 20:27N 29°46' E 122°00'0 0.0
2017-Sep-16 20:00N 29°46' E 122°00'1 1.8
2017-Sep-16 19:30N 29°46' E 122°01'4 7.7
2017-Sep-16 19:01N 29°48' E 122°05'510.9
2017-Sep-16 18:30N 29°50' E 122°11'510.1
2017-Sep-16 18:00N 29°48' E 122°15'5 9.6
2017-Sep-16 17:30N 29°45' E 122°20'4 7.0
2017-Sep-16 16:56N 29°45' E 122°24'0 0.0
2017-Sep-16 16:29N 29°45' E 122°24'0 0.0
2017-Sep-16 15:59N 29°45' E 122°24'0 0.0
2017-Sep-16 15:29N 29°45' E 122°24'0 0.0
2017-Sep-16 14:57N 29°45' E 122°24'0 0.0
2017-Sep-16 14:29N 29°45' E 122°24'0 0.1
2017-Sep-16 13:44N 29°45' E 122°24'0 0.0
2017-Sep-16 13:29N 29°45' E 122°24'0 0.1
2017-Sep-16 12:59N 29°45' E 122°24'0 0.1
2017-Sep-16 12:26N 29°45' E 122°24'0 0.0
2017-Sep-16 12:00N 29°45' E 122°24'0 0.0
2017-Sep-16 11:30N 29°45' E 122°24'0 0.2
2017-Sep-16 11:00N 29°45' E 122°24'1 1.6
2017-Sep-16 10:30N 29°44' E 122°24'3 5.7
2017-Sep-16 10:00N 29°43' E 122°27'612.0
2017-Sep-16 09:30N 29°43' E 122°34'714.1
2017-Sep-16 09:00N 29°46' E 122°41'177 6.0
2017-Sep-15 03:29N 32°42' E 122°50'91 3.4
2017-Sep-14 00:50N 31°15' E 123°20'616.5
2017-Sep-14 00:29N 31°09' E 123°21'916.7
2017-Sep-13 23:58N 31°01' E 123°24'2316.7
2017-Sep-13 22:34N 30°38' E 123°21'217.8
2017-Sep-13 22:27N 30°36' E 123°20'2917.8
2017-Sep-13 20:51N 30°10' E 123°06'6517.9
2017-Sep-13 17:14N 29°09' E 122°39'32716.3
2017-Sep-12 21:12N 24°36' E 119°17'4 9.9
2017-Sep-12 20:47N 24°34' E 119°13'413.8
2017-Sep-12 20:30N 24°31' E 119°10'5013.2
2017-Sep-12 16:42N 24°00' E 118°26'314.2
2017-Sep-12 16:28N 23°58' E 118°24'256 9.1
2017-Sep-11 12:20N 22°19' E 114°07'11 0.5
2017-Sep-10 15:15N 22°22' E 113°55'5 0.3
2017-Sep-10 00:15N 22°26' E 113°53'2 7.4
2017-Sep-09 23:57N 22°24' E 113°54'  

Dump ship's entire track history